Time;durP1;ratioP1;P1;durP2;ratioP2;P2;SDS_P1;SDS_P2;PMS_P1;PMS_P2;Temp;Humidity;BMP_temperature;BMP_pressure;BME280_temperature;BME280_humidity;BME280_pressure;Samples;Min_cycle;Max_cycle;Signal;HPM_P1;HPM_P2
2022/05/07 00:00:16;;;;;;;4.43;1.92;;;11.00;99.90;;;;;;6204624;23;20009;-89
2022/05/07 00:02:49;;;;;;;5.80;2.08;;;11.00;99.90;;;;;;6202780;23;20001;-89
2022/05/07 00:05:24;;;;;;;4.90;2.05;;;10.90;99.90;;;;;;6202880;23;19997;-90
2022/05/07 00:07:57;;;;;;;3.85;1.85;;;10.90;99.90;;;;;;6205737;23;20120;-87
2022/05/07 00:10:32;;;;;;;6.22;1.90;;;10.90;99.90;;;;;;6205744;23;20143;-88
2022/05/07 00:13:08;;;;;;;4.28;1.63;;;10.90;99.90;;;;;;6205560;23;20013;-90
2022/05/07 00:15:40;;;;;;;4.43;1.73;;;10.90;99.90;;;;;;6200955;23;19997;-87
2022/05/07 00:18:10;;;;;;;4.72;1.67;;;10.90;99.90;;;;;;6208558;23;20016;-88
2022/05/07 00:20:55;;;;;;;2.60;1.35;;;10.80;99.90;;;;;;6202434;23;20062;-89
2022/05/07 00:23:21;;;;;;;4.22;2.05;;;10.80;99.90;;;;;;6198904;23;20009;-88
2022/05/07 00:26:07;;;;;;;3.72;1.38;;;10.70;99.90;;;;;;6201526;23;20015;-89
2022/05/07 00:28:36;;;;;;;3.90;1.65;;;10.70;99.90;;;;;;6196813;23;20039;-88
2022/05/07 00:31:02;;;;;;;4.50;1.55;;;10.70;99.90;;;;;;6196951;23;20008;-90
2022/05/07 00:33:29;;;;;;;4.75;1.90;;;10.70;99.90;;;;;;6199426;23;20073;-89
2022/05/07 00:35:55;;;;;;;5.05;1.80;;;10.60;99.90;;;;;;6199214;23;20489;-87
2022/05/07 00:38:21;;;;;;;3.05;1.50;;;10.70;99.90;;;;;;6200871;23;20001;-88
2022/05/07 00:40:50;;;;;;;5.63;1.98;;;10.60;99.90;;;;;;6200746;23;20036;-90
2022/05/07 00:43:18;;;;;;;5.80;2.17;;;10.60;99.90;;;;;;6199911;23;20033;-87
2022/05/07 00:45:47;;;;;;;5.28;2.33;;;10.50;99.90;;;;;;6200907;23;20001;-90
2022/05/07 00:48:19;;;;;;;6.40;2.70;;;10.50;99.90;;;;;;6204945;23;20069;-89
2022/05/07 00:53:55;;;;;;;;;;;;;;;;;;;;;
2022/05/07 00:57:15;;;;;;;5.22;2.17;;;10.30;99.90;;;;;;6207172;23;20012;-92
2022/05/07 00:59:46;;;;;;;5.30;2.30;;;10.30;99.90;;;;;;6206630;23;20013;-89
2022/05/07 01:02:21;;;;;;;4.38;1.83;;;10.30;99.90;;;;;;6230073;23;20012;-90
2022/05/07 01:05:08;;;;;;;4.63;1.98;;;10.30;99.90;;;;;;6204798;23;20009;-90
2022/05/07 01:08:08;;;;;;;;;;;;;;;;;;;;;
2022/05/07 01:16:36;;;;;;;4.25;2.00;;;10.10;99.90;;;;;;6208315;23;20032;-88
2022/05/07 01:19:18;;;;;;;4.43;2.28;;;10.20;99.90;;;;;;6209453;23;20016;-89
2022/05/07 01:22:04;;;;;;;5.18;2.67;;;10.00;99.90;;;;;;6181759;23;20039;-90
2022/05/07 01:24:33;;;;;;;7.20;2.85;;;10.00;99.90;;;;;;6174413;23;20001;-90
2022/05/07 01:27:02;;;;;;;5.18;2.63;;;10.00;99.90;;;;;;6171238;23;20007;-89
2022/05/07 01:30:16;;;;;;;7.13;2.72;;;10.00;99.90;;;;;;6197939;23;20037;-89
2022/05/07 01:36:19;;;;;;;;;;;;;;;;;;;;;
2022/05/07 01:45:17;;;;;;;6.68;3.60;;;9.80;99.90;;;;;;6199504;23;20032;-91
2022/05/07 01:50:37;;;;;;;8.68;3.55;;;9.80;99.90;;;;;;6201929;23;20012;-90
2022/05/07 01:53:18;;;;;;;6.82;3.53;;;9.80;99.90;;;;;;6159304;23;20096;-91
2022/05/07 01:56:27;;;;;;;7.38;3.40;;;9.70;99.90;;;;;;6172010;23;20009;-89
2022/05/07 01:59:06;;;;;;;9.10;3.25;;;9.60;99.90;;;;;;6163152;23;20005;-91
2022/05/07 02:01:49;;;;;;;7.03;2.92;;;9.50;99.90;;;;;;6202474;23;20064;-89
2022/05/07 02:04:20;;;;;;;7.22;3.10;;;9.50;99.90;;;;;;6175115;23;20009;-90
2022/05/07 02:07:07;;;;;;;6.32;3.05;;;9.60;99.90;;;;;;6174663;23;20080;-91
2022/05/07 02:09:35;;;;;;;7.13;3.15;;;9.60;99.90;;;;;;6174428;23;20004;-89
2022/05/07 02:12:35;;;;;;;8.50;3.65;;;9.50;99.90;;;;;;6174840;23;20009;-91
2022/05/07 02:15:11;;;;;;;;;;;;;;;;;;;;;
2022/05/07 02:18:42;;;;;;;;;;;;;;;;;;;;;
2022/05/07 02:21:08;;;;;;;7.25;3.40;;;9.40;99.90;;;;;;6198110;23;20012;-90
2022/05/07 02:24:26;;;;;;;7.40;3.63;;;9.50;99.90;;;;;;6199168;23;20005;-90
2022/05/07 02:27:13;;;;;;;8.80;3.60;;;9.50;99.90;;;;;;6198254;23;20009;-91
2022/05/07 02:36:08;;;;;;;7.32;3.25;;;9.50;99.90;;;;;;6195311;23;20016;-91
2022/05/07 02:38:46;;;;;;;7.30;3.40;;;9.50;99.90;;;;;;6172044;23;19997;-91
2022/05/07 02:44:14;;;;;;;6.60;3.53;;;9.50;99.90;;;;;;6196949;23;20028;-89
2022/05/07 02:46:49;;;;;;;7.75;4.10;;;9.50;99.90;;;;;;6174213;23;20008;-91
2022/05/07 02:52:44;;;;;;;6.07;2.97;;;9.40;99.90;;;;;;6162051;23;20028;-91
2022/05/07 02:55:10;;;;;;;9.15;3.55;;;9.40;99.90;;;;;;6198276;23;20076;-91
2022/05/07 02:58:02;;;;;;;7.00;3.53;;;9.40;99.90;;;;;;6197756;23;19997;-91
2022/05/07 03:00:30;;;;;;;7.03;3.30;;;9.30;99.90;;;;;;6156006;23;20041;-90
2022/05/07 03:03:08;;;;;;;7.43;3.42;;;9.40;99.90;;;;;;6196505;23;20028;-91
2022/05/07 03:06:01;;;;;;;7.22;3.42;;;9.30;99.90;;;;;;6172171;23;20005;-90
2022/05/07 03:08:33;;;;;;;8.52;3.67;;;9.30;99.90;;;;;;6198797;23;20102;-91
2022/05/07 03:11:17;;;;;;;9.30;4.00;;;9.30;99.90;;;;;;6170686;23;20084;-92
2022/05/07 03:13:59;;;;;;;7.78;3.58;;;9.20;99.90;;;;;;6170083;23;20025;-90
2022/05/07 03:16:25;;;;;;;10.93;3.80;;;9.10;99.90;;;;;;6170444;23;20001;-91
2022/05/07 03:19:00;;;;;;;6.53;3.33;;;9.20;99.90;;;;;;6197519;23;20062;-92
2022/05/07 03:22:10;;;;;;;7.70;4.10;;;9.30;99.90;;;;;;6196406;23;20012;-89
2022/05/07 03:24:43;;;;;;;7.68;3.83;;;9.20;99.90;;;;;;6170674;23;20466;-90
2022/05/07 03:27:40;;;;;;;8.90;4.50;;;9.20;99.90;;;;;;6170407;23;20005;-91
2022/05/07 03:30:31;;;;;;;;;;;;;;;;;;;;;
2022/05/07 03:33:19;;;;;;;7.28;3.80;;;9.10;99.90;;;;;;6196458;23;20032;-90
2022/05/07 03:35:50;;;;;;;7.32;3.40;;;9.10;99.90;;;;;;6170676;23;20040;-90
2022/05/07 03:38:23;;;;;;;6.30;3.28;;;9.10;99.90;;;;;;6196819;23;20541;-88
2022/05/07 03:40:49;;;;;;;6.22;3.00;;;9.10;99.90;;;;;;6169627;23;20009;-90
2022/05/07 03:43:20;;;;;;;7.68;3.45;;;9.10;99.90;;;;;;6195895;23;20005;-89
2022/05/07 03:45:46;;;;;;;6.75;3.28;;;9.10;99.90;;;;;;6201093;23;20004;-88
2022/05/07 03:48:18;;;;;;;7.20;3.65;;;9.10;99.90;;;;;;6197278;23;20009;-90
2022/05/07 03:51:06;;;;;;;8.63;3.25;;;9.00;99.90;;;;;;6172672;23;20009;-87
2022/05/07 03:53:42;;;;;;;7.45;3.88;;;9.00;99.90;;;;;;6169898;23;20005;-90
2022/05/07 03:56:21;;;;;;;10.43;4.15;;;9.00;99.90;;;;;;6170332;23;19997;-90
2022/05/07 03:58:49;;;;;;;8.05;3.50;;;9.00;99.90;;;;;;6194215;23;20005;-87
2022/05/07 04:01:43;;;;;;;6.50;3.60;;;8.90;99.90;;;;;;6195973;23;19993;-91
2022/05/07 04:04:44;;;;;;;10.38;3.58;;;9.00;99.90;;;;;;6169072;23;20048;-91
2022/05/07 04:16:15;;;;;;;8.88;4.75;;;9.00;99.90;;;;;;6184338;23;20107;-91
2022/05/07 04:25:33;;;;;;;9.40;4.68;;;9.00;99.90;;;;;;6125795;23;20032;-91
2022/05/07 04:28:02;;;;;;;8.82;4.30;;;9.10;99.90;;;;;;6100036;23;20081;-90
2022/05/07 04:30:33;;;;;;;7.80;4.05;;;9.00;99.90;;;;;;6100903;23;20006;-90
2022/05/07 04:33:08;;;;;;;7.50;3.63;;;9.00;99.90;;;;;;6115140;22;20462;-90
2022/05/07 04:35:59;;;;;;;8.13;4.30;;;9.10;99.90;;;;;;6187437;23;20324;-89
2022/05/07 04:39:28;;;;;;;;;;;;;;;;;;;;;
2022/05/07 04:42:04;;;;;;;10.90;4.55;;;9.10;99.90;;;;;;6016177;23;20066;-91
2022/05/07 04:45:15;;;;;;;;;;;;;;;;;;;;;
2022/05/07 04:49:02;;;;;;;7.15;3.97;;;9.10;99.90;;;;;;6175078;23;20057;-89
2022/05/07 04:51:24;;;;;;;7.93;4.38;;;9.20;99.90;;;;;;6169094;23;20006;-90
2022/05/07 04:54:02;;;;;;;9.38;4.20;;;9.20;99.90;;;;;;6168141;23;20073;-91
2022/05/07 04:56:30;;;;;;;6.78;3.92;;;9.30;99.90;;;;;;6163750;23;20064;-91
2022/05/07 04:59:04;;;;;;;7.70;4.07;;;9.10;99.90;;;;;;6154642;23;20088;-90
2022/05/07 05:01:32;;;;;;;8.65;4.80;;;9.40;99.90;;;;;;6155347;23;20008;-90
2022/05/07 05:03:58;;;;;;;7.18;4.28;;;9.50;99.90;;;;;;6155430;23;20013;-90
2022/05/07 05:06:36;;;;;;;9.88;4.50;;;9.50;99.90;;;;;;6154599;23;20479;-91
2022/05/07 05:09:12;;;;;;;8.80;4.25;;;9.60;99.90;;;;;;6152900;23;20448;-90
2022/05/07 05:11:43;;;;;;;8.93;4.63;;;9.60;99.90;;;;;;6152315;23;20010;-91
2022/05/07 05:17:04;;;;;;;7.13;4.40;;;9.90;99.90;;;;;;6154782;23;20032;-90
2022/05/07 05:19:37;;;;;;;9.38;4.72;;;10.00;99.90;;;;;;6153713;23;20005;-90
2022/05/07 05:22:03;;;;;;;9.90;4.38;;;10.10;99.90;;;;;;6153995;23;20008;-90
2022/05/07 05:24:36;;;;;;;8.85;4.70;;;10.00;99.90;;;;;;6153436;23;19998;-89
2022/05/07 05:27:12;;;;;;;9.77;5.00;;;10.10;99.90;;;;;;6154187;23;20050;-90
2022/05/07 05:29:45;;;;;;;10.05;4.28;;;10.30;99.90;;;;;;6154459;23;20004;-90
2022/05/07 05:32:20;;;;;;;12.00;5.15;;;10.10;99.90;;;;;;6153437;23;20037;-90
2022/05/07 05:35:40;;;;;;;8.57;4.47;;;10.30;99.90;;;;;;6158688;23;20340;-91
2022/05/07 05:38:17;;;;;;;9.50;4.45;;;10.60;99.90;;;;;;6159064;23;20009;-90
2022/05/07 05:41:01;;;;;;;;;;;;;;;;;;;;;
2022/05/07 05:43:27;;;;;;;7.72;4.32;;;10.70;99.90;;;;;;6185466;23;20538;-90
2022/05/07 05:45:52;;;;;;;10.98;4.57;;;10.80;99.90;;;;;;6158798;23;20072;-90
2022/05/07 05:48:18;;;;;;;7.55;4.07;;;10.80;99.90;;;;;;6159034;23;20012;-91
2022/05/07 05:50:44;;;;;;;8.77;4.70;;;11.00;99.90;;;;;;6159083;23;20005;-92
2022/05/07 05:53:20;;;;;;;8.45;4.88;;;10.90;99.90;;;;;;6159937;23;20435;-92
2022/05/07 05:55:48;;;;;;;7.20;4.35;;;10.90;99.90;;;;;;6159579;23;20324;-90
2022/05/07 05:58:17;;;;;;;8.73;5.22;;;11.00;99.90;;;;;;6159129;23;20005;-90
2022/05/07 06:00:52;;;;;;;11.10;4.53;;;11.10;99.90;;;;;;6159317;23;20040;-91
2022/05/07 06:03:19;;;;;;;7.50;3.95;;;11.30;99.90;;;;;;6159448;23;20012;-90
2022/05/07 06:05:49;;;;;;;10.45;4.88;;;11.40;99.90;;;;;;6184736;23;20001;-90
2022/05/07 06:08:21;;;;;;;8.00;4.95;;;11.50;99.90;;;;;;6158545;23;20076;-90
2022/05/07 06:10:59;;;;;;;9.73;5.00;;;11.60;99.90;;;;;;6159317;23;20092;-90
2022/05/07 06:13:26;;;;;;;8.82;5.03;;;11.70;99.90;;;;;;6158973;23;20082;-90
2022/05/07 06:16:09;;;;;;;9.27;4.72;;;11.70;99.90;;;;;;6158869;23;20028;-89
2022/05/07 06:18:48;;;;;;;9.60;5.13;;;11.80;99.90;;;;;;6160439;23;20024;-89
2022/05/07 06:21:17;;;;;;;9.90;4.93;;;11.90;99.90;;;;;;6158572;23;20005;-90
2022/05/07 06:27:28;;;;;;;10.32;4.88;;;11.90;99.90;;;;;;6153196;23;20136;-90
2022/05/07 06:29:29;;;;;;;9.80;5.30;;;12.00;99.90;;;;;;6183723;23;20020;-90
2022/05/07 06:31:54;;;;;;;7.93;5.07;;;12.30;99.90;;;;;;6184044;23;20488;-90
2022/05/07 06:34:26;;;;;;;9.00;4.95;;;12.50;99.90;;;;;;6158302;23;20049;-91
2022/05/07 06:36:57;;;;;;;8.57;4.63;;;12.40;99.90;;;;;;6158551;23;20031;-91
2022/05/07 06:39:29;;;;;;;10.63;4.97;;;12.70;99.90;;;;;;6158058;23;20633;-90
2022/05/07 06:41:55;;;;;;;9.05;4.68;;;12.60;99.90;;;;;;6184560;23;20064;-90
2022/05/07 06:44:21;;;;;;;10.82;5.60;;;12.60;99.90;;;;;;6159033;23;20017;-91
2022/05/07 06:46:49;;;;;;;8.20;4.35;;;12.50;99.90;;;;;;6157639;23;19997;-90
2022/05/07 06:49:17;;;;;;;9.15;4.90;;;12.50;99.90;;;;;;6158034;23;20008;-90
2022/05/07 06:51:43;;;;;;;9.02;4.38;;;12.40;99.90;;;;;;6156342;23;20004;-90
2022/05/07 06:54:11;;;;;;;10.63;4.70;;;12.50;99.90;;;;;;6157933;23;20466;-89
2022/05/07 06:56:37;;;;;;;9.95;5.00;;;12.50;99.90;;;;;;6157752;23;20005;-89
2022/05/07 06:59:09;;;;;;;8.13;4.45;;;12.50;99.90;;;;;;6157001;23;20001;-92
2022/05/07 07:01:38;;;;;;;11.18;5.60;;;12.90;99.90;;;;;;6157699;23;20033;-91
2022/05/07 07:04:05;;;;;;;8.93;4.72;;;13.00;99.90;;;;;;6156773;23;20005;-91
2022/05/07 07:06:31;;;;;;;9.40;4.57;;;13.20;99.90;;;;;;6157289;23;20013;-90
2022/05/07 07:12:36;;;;;;;7.93;4.55;;;13.30;99.90;;;;;;6185830;23;20078;-93
2022/05/07 07:23:11;;;;;;;9.40;4.90;;;13.90;99.90;;;;;;6123059;23;20021;-91
2022/05/07 07:25:51;;;;;;;7.68;4.82;;;14.10;99.90;;;;;;6177953;23;20025;-91
2022/05/07 07:28:18;;;;;;;9.00;5.07;;;14.40;99.90;;;;;;6183805;23;19989;-90
2022/05/07 07:31:44;;;;;;;7.60;4.38;;;14.60;99.90;;;;;;6182869;23;20009;-91
2022/05/07 07:40:51;;;;;;;6.60;3.88;;;15.30;99.90;;;;;;6217742;23;20028;-91
2022/05/07 07:43:47;;;;;;;7.50;4.43;;;15.50;99.90;;;;;;6189380;23;20004;-90
2022/05/07 07:50:55;;;;;;;;;;;;;;;;;;;;;
2022/05/07 07:54:08;;;;;;;6.35;3.42;;;15.70;99.90;;;;;;6129531;23;20010;-92
2022/05/07 07:57:13;;;;;;;8.13;3.25;;;16.00;99.90;;;;;;6084039;23;20007;-92
2022/05/07 08:00:34;;;;;;;;;;;;;;;;;;;;;
2022/05/07 09:13:36;;;;;;;6.18;3.22;;;18.90;99.90;;;;;;6210046;22;20455;-89
2022/05/07 09:16:39;;;;;;;6.57;3.40;;;18.70;99.90;;;;;;6175275;23;20021;-89
2022/05/07 09:19:24;;;;;;;5.93;3.30;;;18.70;99.90;;;;;;6125549;23;20007;-88
2022/05/07 09:21:50;;;;;;;4.97;2.42;;;18.90;99.90;;;;;;6186994;23;19997;-88
2022/05/07 09:24:53;;;;;;;4.43;2.38;;;19.10;99.90;;;;;;6168126;23;20022;-88
2022/05/07 09:27:36;;;;;;;6.47;2.08;;;19.30;98.80;;;;;;6098424;23;20002;-88
2022/05/07 09:30:19;;;;;;;3.67;1.92;;;19.40;98.60;;;;;;6154817;23;20010;-89
2022/05/07 09:32:54;;;;;;;7.40;2.30;;;19.40;98.60;;;;;;6153717;23;20036;-88
2022/05/07 09:35:56;;;;;;;6.72;2.25;;;19.30;98.90;;;;;;6177685;23;20037;-90
2022/05/07 09:38:25;;;;;;;4.18;2.25;;;19.50;98.20;;;;;;6153415;23;20009;-90
2022/05/07 09:41:07;;;;;;;4.45;2.35;;;19.30;98.70;;;;;;6156552;23;20012;-90
2022/05/07 09:43:36;;;;;;;3.95;1.95;;;19.60;98.30;;;;;;6156651;23;20033;-89
2022/05/07 09:46:03;;;;;;;4.65;2.35;;;19.40;98.30;;;;;;6201024;23;20029;-89
2022/05/07 09:48:30;;;;;;;4.72;1.45;;;19.40;97.80;;;;;;6181623;23;20456;-89
2022/05/07 09:50:57;;;;;;;2.75;1.08;;;19.50;94.10;;;;;;6204965;23;20016;-88
2022/05/07 09:59:00;;;;;;;1.73;0.75;;;19.40;94.40;;;;;;6177986;23;20005;-90
2022/05/07 10:01:54;;;;;;;2.13;0.68;;;19.10;93.30;;;;;;6199950;23;20323;-89
2022/05/07 10:04:59;;;;;;;2.28;0.75;;;18.90;93.90;;;;;;6199645;23;20053;-91
2022/05/07 10:08:06;;;;;;;1.73;0.70;;;18.50;93.40;;;;;;6199407;23;20005;-90
2022/05/07 10:10:37;;;;;;;1.02;0.40;;;18.50;94.60;;;;;;6197411;23;20002;-90
2022/05/07 10:13:05;;;;;;;1.10;0.30;;;19.10;90.70;;;;;;6197446;23;20006;-89
2022/05/07 10:15:37;;;;;;;0.57;0.30;;;19.80;87.00;;;;;;6197218;23;20104;-91
2022/05/07 10:20:45;;;;;;;1.35;0.32;;;21.00;82.40;;;;;;6188708;22;20031;-92
2022/05/07 10:23:34;;;;;;;0.70;0.32;;;21.40;79.60;;;;;;6189718;23;20010;-91
2022/05/07 15:05:17;;;;;;;;;;;;;;;;;;;;;
2022/05/07 15:11:44;;;;;;;1.55;0.70;;;24.50;66.30;;;;;;6235431;23;20003;-90
2022/05/07 15:26:01;;;;;;;;;;;;;;;;;;;;;
2022/05/07 16:26:48;;;;;;;2.33;0.98;;;21.30;74.30;;;;;;6181898;22;20043;-89
2022/05/07 16:29:14;;;;;;;2.60;1.15;;;21.20;74.70;;;;;;6183952;23;20068;-88
2022/05/07 16:31:41;;;;;;;3.35;1.58;;;21.20;75.40;;;;;;6181003;23;20028;-89
2022/05/07 16:34:18;;;;;;;3.03;1.40;;;21.20;75.50;;;;;;6182577;23;20447;-88
2022/05/07 16:36:46;;;;;;;2.50;1.15;;;20.90;73.60;;;;;;6152353;23;19996;-88
2022/05/07 16:39:12;;;;;;;2.22;1.17;;;21.10;75.00;;;;;;6150044;23;20005;-89
2022/05/07 16:41:39;;;;;;;2.22;1.10;;;21.30;75.20;;;;;;6148875;23;20471;-88
2022/05/07 16:44:04;;;;;;;2.08;1.20;;;20.90;75.70;;;;;;6152227;23;20021;-88
2022/05/07 16:46:30;;;;;;;2.65;1.52;;;20.90;75.70;;;;;;6151038;23;19998;-89
2022/05/07 16:48:58;;;;;;;2.33;1.10;;;20.70;75.20;;;;;;6152154;23;20064;-88
2022/05/07 16:51:24;;;;;;;3.20;1.27;;;20.80;75.60;;;;;;6153364;23;20523;-88
2022/05/07 16:53:50;;;;;;;3.42;1.38;;;20.80;75.30;;;;;;6152054;23;20056;-88
2022/05/07 16:56:16;;;;;;;2.38;1.10;;;20.80;76.20;;;;;;6151991;23;20001;-88
2022/05/07 16:58:50;;;;;;;2.60;1.40;;;20.80;76.60;;;;;;6157092;23;20478;-88
2022/05/07 17:01:19;;;;;;;1.95;1.10;;;20.70;76.40;;;;;;6155185;23;20027;-90
2022/05/07 17:03:46;;;;;;;3.50;1.40;;;20.70;76.30;;;;;;6150297;23;20354;-88
2022/05/07 17:06:15;;;;;;;3.13;1.50;;;20.60;77.00;;;;;;6163046;23;20009;-89
2022/05/07 17:08:40;;;;;;;3.42;1.48;;;20.60;76.80;;;;;;6155824;23;20017;-88
2022/05/07 17:11:09;;;;;;;3.30;1.40;;;20.50;77.50;;;;;;6157050;23;20032;-90
2022/05/07 17:14:33;;;;;;;3.40;1.30;;;20.60;77.60;;;;;;6153266;23;20021;-89
2022/05/07 17:17:35;;;;;;;1.98;1.08;;;20.50;76.40;;;;;;6069842;23;20011;-89
2022/05/07 17:38:55;;;;;;;;;;;;;;;;;;;;;
2022/05/07 17:44:52;;;;;;;3.63;1.58;;;19.60;78.00;;;;;;6134083;23;20031;-89
2022/05/07 17:49:16;;;;;;;2.22;1.33;;;19.60;78.30;;;;;;6128840;23;20024;-88
2022/05/07 17:51:20;;;;;;;2.15;1.17;;;19.40;79.60;;;;;;6154124;23;20711;-89
2022/05/07 17:54:23;;;;;;;;;;;;;;;;;;;;;
2022/05/07 18:04:59;;;;;;;2.53;1.02;;;19.00;80.70;;;;;;6081293;23;20080;-89
2022/05/07 18:07:54;;;;;;;5.35;1.30;;;18.90;80.50;;;;;;6154703;23;20008;-89
2022/05/07 18:10:58;;;;;;;2.65;0.98;;;18.80;81.40;;;;;;6156838;23;20012;-89
2022/05/07 18:14:08;;;;;;;3.15;1.10;;;18.70;81.30;;;;;;6153759;23;20006;-89
2022/05/07 18:17:13;;;;;;;3.85;1.33;;;18.70;81.60;;;;;;6154589;23;20005;-90
2022/05/07 18:20:13;;;;;;;2.75;1.20;;;18.60;81.30;;;;;;6157415;23;19994;-89
2022/05/07 18:25:13;;;;;;;2.28;1.15;;;18.40;81.80;;;;;;6168235;22;20044;-80
2022/05/07 18:27:40;;;;;;;7.07;1.45;;;18.50;82.40;;;;;;6181399;23;20493;-80
2022/05/07 18:30:08;;;;;;;2.40;1.20;;;18.30;82.90;;;;;;6182845;23;20012;-81
2022/05/07 18:32:40;;;;;;;2.95;1.50;;;18.20;83.80;;;;;;6181896;23;20455;-81
2022/05/07 18:35:06;;;;;;;;;;;18.10;82.80;;;;;;6183902;23;20055;-81
2022/05/07 18:43:00;;;;;;;2.47;1.30;;;17.90;84.00;;;;;;6182921;23;20084;-81
2022/05/07 18:45:26;;;;;;;2.83;1.65;;;17.80;84.50;;;;;;6207009;23;20024;-81
2022/05/07 18:47:51;;;;;;;2.47;1.27;;;17.70;84.90;;;;;;6182006;23;20450;-81
2022/05/07 18:50:17;;;;;;;3.35;1.70;;;17.70;85.60;;;;;;6181468;23;20039;-82
2022/05/07 18:52:44;;;;;;;3.60;1.58;;;17.60;86.10;;;;;;6181760;23;20005;-81
2022/05/07 19:00:41;;;;;;;2.50;1.02;;;17.40;87.70;;;;;;6183240;23;20011;-81
2022/05/07 19:03:07;;;;;;;2.53;1.30;;;17.30;88.00;;;;;;6212261;23;20502;-80
2022/05/07 19:05:33;;;;;;;2.15;1.10;;;17.30;88.30;;;;;;6187296;23;20322;-80
2022/05/07 19:08:00;;;;;;;3.30;1.40;;;17.10;88.20;;;;;;6186524;23;20005;-80
2022/05/07 19:10:26;;;;;;;2.70;1.15;;;17.10;89.00;;;;;;6187993;23;20005;-80
2022/05/07 19:12:57;;;;;;;3.80;1.23;;;17.00;89.40;;;;;;6185166;23;20423;-81
2022/05/07 19:15:23;;;;;;;4.22;1.45;;;17.00;89.90;;;;;;6181866;23;20194;-81
2022/05/07 19:17:49;;;;;;;3.05;1.40;;;16.90;90.20;;;;;;6182096;23;20009;-81
2022/05/07 19:20:15;;;;;;;3.92;1.45;;;16.80;90.50;;;;;;6184080;23;20001;-82
2022/05/07 19:22:40;;;;;;;3.22;1.27;;;16.70;90.80;;;;;;6181384;23;20003;-82
2022/05/07 19:25:06;;;;;;;4.38;1.35;;;16.70;91.10;;;;;;6211533;23;20037;-82
2022/05/07 19:27:34;;;;;;;3.92;1.48;;;16.60;91.40;;;;;;6211410;23;19996;-82
2022/05/07 19:30:05;;;;;;;2.85;1.45;;;16.50;91.50;;;;;;6214335;23;20055;-82
2022/05/07 19:32:32;;;;;;;3.42;1.40;;;16.50;91.90;;;;;;6191028;23;20058;-81
2022/05/07 19:34:58;;;;;;;2.30;1.40;;;16.40;92.40;;;;;;6219105;23;20004;-82
2022/05/07 19:37:24;;;;;;;3.50;1.70;;;16.30;92.70;;;;;;6192598;23;20001;-81
2022/05/07 19:39:54;;;;;;;3.13;1.70;;;16.20;92.60;;;;;;6217974;23;20000;-81
2022/05/07 19:42:21;;;;;;;2.95;1.60;;;16.20;92.50;;;;;;6219673;23;19996;-82
2022/05/07 19:44:47;;;;;;;2.80;1.60;;;16.10;92.80;;;;;;6192701;23;20004;-81
2022/05/07 19:47:18;;;;;;;4.35;1.73;;;16.10;93.20;;;;;;6191890;23;20281;-81
2022/05/07 19:49:45;;;;;;;3.38;1.65;;;16.00;93.40;;;;;;6191542;23;20005;-81
2022/05/07 19:52:12;;;;;;;3.95;1.95;;;16.00;93.40;;;;;;6166997;23;20013;-81
2022/05/07 19:54:38;;;;;;;4.53;2.10;;;15.90;93.00;;;;;;6192299;23;20013;-81
2022/05/07 19:57:06;;;;;;;3.28;1.80;;;15.90;93.30;;;;;;6218974;23;20035;-82
2022/05/07 19:59:32;;;;;;;3.25;1.88;;;15.90;93.50;;;;;;6183315;23;20083;-88
2022/05/07 20:02:01;;;;;;;3.50;2.00;;;15.80;93.60;;;;;;6184733;23;20410;-88
2022/05/07 20:04:27;;;;;;;5.97;2.08;;;15.80;93.90;;;;;;6186674;23;20028;-88
2022/05/07 20:06:52;;;;;;;3.78;2.03;;;15.70;94.00;;;;;;6186398;23;20012;-89
2022/05/07 20:09:18;;;;;;;4.38;2.22;;;15.70;94.30;;;;;;6209136;23;20438;-87
2022/05/07 20:11:45;;;;;;;3.95;2.50;;;15.70;94.40;;;;;;6213791;23;20000;-87
2022/05/07 20:15:19;;;;;;;;;;;;;;;;;;;;;
2022/05/07 20:25:33;;;;;;;3.30;1.98;;;15.50;96.20;;;;;;6217628;23;20016;-91
2022/05/07 20:35:49;;;;;;;;;;;;;;;;;;;;;
2022/05/07 20:38:59;;;;;;;4.47;2.50;;;15.20;98.00;;;;;;6189052;23;20059;-92
2022/05/07 20:42:11;;;;;;;3.78;2.38;;;15.20;98.70;;;;;;6193463;23;20411;-92
2022/05/07 20:59:49;;;;;;;;;;;;;;;;;;;;;
2022/05/07 21:02:38;;;;;;;;;;;;;;;;;;;;;
2022/05/07 21:05:39;;;;;;;;;;;;;;;;;;;;;
2022/05/07 21:09:04;;;;;;;7.28;2.70;;;14.60;99.90;;;;;;6023850;23;20468;-91
2022/05/07 21:12:31;;;;;;;4.80;2.60;;;14.60;99.90;;;;;;6095518;23;20009;-92
2022/05/07 21:15:32;;;;;;;4.68;2.78;;;14.70;99.90;;;;;;6200520;23;20028;-92
2022/05/07 21:27:48;;;;;;;;;;;;;;;;;;;;;
2022/05/07 21:30:38;;;;;;;5.93;3.30;;;14.40;99.90;;;;;;6214662;23;20107;-92
2022/05/07 21:36:44;;;;;;;5.80;3.50;;;14.30;99.90;;;;;;6225485;23;20003;-92
2022/05/07 21:39:36;;;;;;;6.13;3.42;;;14.20;99.90;;;;;;6214241;23;20020;-92
2022/05/07 21:42:37;;;;;;;6.35;3.40;;;14.20;99.90;;;;;;6214075;23;20020;-92
2022/05/07 21:45:06;;;;;;;6.25;3.30;;;14.20;99.90;;;;;;6189980;23;20005;-90
2022/05/07 21:54:26;;;;;;;7.35;3.22;;;14.30;99.90;;;;;;6209896;23;20039;-91
2022/05/07 21:57:27;;;;;;;5.85;3.45;;;14.00;99.90;;;;;;6196876;23;20616;-91
2022/05/07 22:00:32;;;;;;;6.72;3.42;;;13.90;99.90;;;;;;6196011;23;20012;-91
2022/05/07 22:03:17;;;;;;;5.60;3.53;;;13.90;99.90;;;;;;6220298;23;20012;-91
2022/05/07 22:06:39;;;;;;;7.13;3.72;;;13.80;99.90;;;;;;6195435;23;20016;-91
2022/05/07 22:12:12;;;;;;;6.82;3.75;;;13.80;99.90;;;;;;6160399;23;20002;-91
2022/05/07 22:18:31;;;;;;;6.70;3.50;;;13.90;99.90;;;;;;6208641;23;20446;-90
2022/05/07 22:21:25;;;;;;;6.90;3.75;;;13.70;99.90;;;;;;6186755;23;20005;-90
2022/05/07 22:24:29;;;;;;;7.03;3.90;;;13.70;99.90;;;;;;6193322;23;20004;-90
2022/05/07 22:27:21;;;;;;;5.47;3.50;;;13.70;99.90;;;;;;6193683;23;20004;-90
2022/05/07 22:30:23;;;;;;;8.45;4.07;;;13.60;99.90;;;;;;6192109;23;20032;-90
2022/05/07 22:33:05;;;;;;;7.35;3.85;;;13.60;99.90;;;;;;6190250;23;20316;-89
2022/05/07 22:35:40;;;;;;;8.23;3.92;;;13.60;99.90;;;;;;6192387;23;20009;-90
2022/05/07 22:38:10;;;;;;;9.05;4.20;;;13.60;99.90;;;;;;6190692;23;20546;-90
2022/05/07 22:40:48;;;;;;;5.30;3.22;;;13.90;99.90;;;;;;6191790;23;20035;-90
2022/05/07 22:43:42;;;;;;;5.60;3.50;;;13.60;99.90;;;;;;6191482;23;20049;-90
2022/05/07 22:46:20;;;;;;;6.85;4.05;;;13.50;99.90;;;;;;6218420;23;20001;-90
2022/05/07 22:49:07;;;;;;;;;;;;;;;;;;;;;
2022/05/07 22:52:21;;;;;;;7.03;4.10;;;13.60;99.90;;;;;;6217263;23;20031;-90
2022/05/07 22:55:08;;;;;;;7.43;4.35;;;13.40;99.90;;;;;;6066679;23;20439;-90
2022/05/07 23:02:00;;;;;;;;;;;;;;;;;;;;;
2022/05/07 23:15:15;;;;;;;7.45;4.47;;;13.20;99.90;;;;;;6096020;23;20046;-90
2022/05/07 23:18:13;;;;;;;7.15;4.13;;;13.20;99.90;;;;;;6096217;23;20014;-90
2022/05/07 23:20:47;;;;;;;8.40;4.40;;;13.10;99.90;;;;;;6184999;23;20005;-90
2022/05/07 23:24:02;;;;;;;8.02;4.63;;;13.30;99.90;;;;;;6160766;23;20056;-90
2022/05/07 23:27:11;;;;;;;;;;;;;;;;;;;;;
2022/05/07 23:30:12;;;;;;;10.32;4.50;;;13.40;99.90;;;;;;6182738;23;20068;-90
2022/05/07 23:33:15;;;;;;;8.63;4.03;;;13.00;99.90;;;;;;6160687;23;20011;-89
2022/05/07 23:39:05;;;;;;;7.38;4.38;;;13.10;99.90;;;;;;6187296;23;20001;-88
2022/05/07 23:41:41;;;;;;;8.82;4.65;;;12.90;99.90;;;;;;6160547;23;20009;-91
2022/05/07 23:45:00;;;;;;;6.25;3.97;;;12.80;99.90;;;;;;6160129;23;20096;-90
2022/05/07 23:47:24;;;;;;;7.80;4.50;;;12.80;99.90;;;;;;6175191;23;20088;-90
2022/05/07 23:50:08;;;;;;;8.32;4.63;;;12.90;99.90;;;;;;6187772;23;20063;-89
2022/05/07 23:52:47;;;;;;;8.57;4.82;;;12.80;99.90;;;;;;6143389;23;20386;-89
2022/05/07 23:55:36;;;;;;;10.30;4.93;;;12.70;99.90;;;;;;6160520;23;19997;-90
2022/05/07 23:58:48;;;;;;;7.47;4.70;;;12.70;99.90;;;;;;6150641;23;20551;-90
